Time;durP1;ratioP1;P1;durP2;ratioP2;P2;SDS_P1;SDS_P2;PMS_P1;PMS_P2;Temp;Humidity;BMP_temperature;BMP_pressure;BME280_temperature;BME280_humidity;BME280_pressure;Samples;Min_cycle;Max_cycle;Signal;HPM_P1;HPM_P2
2022/12/17 13:06:09;;;;;;;1.43;1.40;;;;;;;17.66;100.00;95405.81;5111838;28;20523;-58
2022/12/17 13:08:39;;;;;;;1.27;1.17;;;;;;;17.68;100.00;95379.50;5112197;28;20459;-58
2022/12/17 13:11:27;;;;;;;1.10;1.00;;;;;;;17.87;100.00;95413.28;5112045;28;20904;-58
2022/12/17 13:14:01;;;;;;;0.93;0.80;;;;;;;16.88;100.00;95245.94;5111885;28;20507;-58
2022/12/17 13:16:37;;;;;;;1.60;1.50;;;;;;;17.90;100.00;95401.94;5111306;28;20470;-59
2022/12/17 13:19:19;;;;;;;2.43;2.23;;;;;;;17.01;100.00;95276.38;5112002;28;20780;-59
2022/12/17 13:21:49;;;;;;;0.93;0.93;;;;;;;17.80;100.00;95407.59;5111939;28;21035;-59
2022/12/17 13:24:25;;;;;;;1.30;0.97;;;;;;;17.09;100.00;95430.94;5111575;28;20420;-59
2022/12/17 13:26:54;;;;;;;2.10;1.10;;;;;;;16.78;100.00;95406.00;5112006;28;20432;-59
2022/12/17 13:29:28;;;;;;;1.67;1.27;;;;;;;16.85;100.00;95420.53;5112343;28;20794;-59
2022/12/17 13:32:05;;;;;;;1.03;0.80;;;;;;;16.19;100.00;95380.41;5111955;28;20959;-59
2022/12/17 13:34:46;;;;;;;1.47;1.40;;;;;;;15.36;100.00;95239.25;5112176;28;20447;-58
2022/12/17 13:37:25;;;;;;;6.10;0.73;;;;;;;16.64;100.00;95416.00;5111729;28;20478;-59
2022/12/17 13:40:03;;;;;;;1.10;1.00;;;;;;;16.66;100.00;95419.16;5112034;28;20428;-59
2022/12/17 13:42:35;;;;;;;0.60;0.60;;;;;;;16.46;100.00;95418.53;5111697;28;20807;-59
2022/12/17 13:45:04;;;;;;;0.60;0.43;;;;;;;16.05;100.00;95305.56;5111655;28;20428;-59
2022/12/17 13:47:37;;;;;;;0.90;0.90;;;;;;;16.81;100.00;95413.44;5111678;28;20519;-59
2022/12/17 13:50:20;;;;;;;1.87;1.60;;;;;;;16.80;100.00;95390.47;5111468;28;20491;-59
2022/12/17 13:53:12;;;;;;;1.23;1.13;;;;;;;16.69;100.00;95395.28;5111689;28;20432;-60
2022/12/17 13:55:40;;;;;;;1.20;1.00;;;;;;;16.71;100.00;95400.31;5111516;28;20459;-59
2022/12/17 13:58:21;;;;;;;1.07;1.07;;;;;;;16.33;100.00;95336.44;5111603;28;20507;-58
2022/12/17 14:00:49;;;;;;;1.93;1.70;;;;;;;16.84;100.00;95397.56;5113069;28;20869;-58
2022/12/17 14:03:21;;;;;;;0.50;0.40;;;;;;;16.87;100.00;95394.28;5115520;28;20435;-58
2022/12/17 14:06:11;;;;;;;0.80;0.70;;;;;;;16.87;100.00;95401.53;5115559;28;20435;-59
2022/12/17 14:08:42;;;;;;;1.07;1.07;;;;;;;16.35;100.00;95371.69;5116016;28;20424;-59
2022/12/17 14:13:57;;;;;;;0.83;0.83;;;;;;;16.45;100.00;95429.53;5115494;28;20446;-59
2022/12/17 14:16:26;;;;;;;2.73;2.63;;;;;;;16.12;100.00;95460.22;5114954;28;20470;-59
2022/12/17 14:18:56;;;;;;;6.57;5.80;;;;;;;15.47;100.00;95497.06;5115154;28;20419;-59
2022/12/17 14:21:26;;;;;;;4.77;4.47;;;;;;;15.12;100.00;95496.59;5114963;28;20442;-59
2022/12/17 14:23:57;;;;;;;3.67;3.03;;;;;;;15.16;100.00;95507.47;5115048;28;20420;-60
2022/12/17 14:26:26;;;;;;;2.10;2.00;;;;;;;14.45;100.00;95465.88;5114535;28;20427;-60
2022/12/17 14:28:55;;;;;;;1.43;1.33;;;;;;;15.19;100.00;95534.38;5114867;28;20454;-60
2022/12/17 14:31:26;;;;;;;2.40;1.80;;;;;;;13.73;100.00;95333.94;5114902;28;20434;-59
2022/12/17 14:34:06;;;;;;;1.40;1.33;;;;;;;15.02;100.00;95547.47;5114458;28;20431;-59
2022/12/17 14:36:36;;;;;;;0.90;0.80;;;;;;;14.95;100.00;95522.25;5114738;28;20474;-59
2022/12/17 14:39:17;;;;;;;1.80;1.70;;;;;;;14.23;100.00;95432.88;5115028;28;20481;-59
2022/12/17 14:44:51;;;;;;;0.97;0.83;;;;;;;15.02;100.00;95571.50;5011963;28;21080;-60
2022/12/17 14:47:22;;;;;;;0.80;0.60;;;;;;;15.09;100.00;95577.25;5096734;28;20431;-60
2022/12/17 14:50:00;;;;;;;1.00;1.00;;;;;;;14.42;100.00;95479.78;5114517;28;20495;-60
2022/12/17 14:52:41;;;;;;;2.83;0.80;;;;;;;14.81;100.00;95564.06;5114296;28;20429;-60
2022/12/17 14:55:38;;;;;;;1.83;1.70;;;;;;;14.21;100.00;95496.34;5114830;28;20907;-59
2022/12/17 14:58:18;;;;;;;3.57;3.30;;;;;;;13.65;100.00;95469.59;5067319;28;20451;-61
2022/12/17 15:00:50;;;;;;;3.43;3.30;;;;;;;13.81;100.00;95498.44;5114382;28;20950;-59
2022/12/17 15:03:21;;;;;;;2.90;1.97;;;;;;;14.21;100.00;95561.13;5114259;28;20420;-60
2022/12/17 15:05:57;;;;;;;1.30;1.30;;;;;;;14.39;100.00;95540.94;5114599;28;20429;-59
2022/12/17 15:08:27;;;;;;;2.17;2.07;;;;;;;14.27;100.00;95508.53;5114130;28;20411;-59
2022/12/17 15:11:00;;;;;;;3.60;2.30;;;;;;;14.37;100.00;95589.19;5114273;28;20416;-59
2022/12/17 15:13:28;;;;;;;3.20;3.00;;;;;;;14.37;100.00;95583.09;5113332;28;20430;-57
2022/12/17 15:15:57;;;;;;;8.93;4.53;;;;;;;14.54;100.00;95592.19;5113892;28;20503;-58
2022/12/17 15:18:25;;;;;;;3.40;3.27;;;;;;;14.64;100.00;95591.25;5113950;28;20955;-58
2022/12/17 15:20:53;;;;;;;7.37;3.57;;;;;;;14.71;100.00;95569.56;5114090;28;20438;-58
2022/12/17 15:23:23;;;;;;;16.67;11.20;;;;;;;14.26;100.00;95597.59;5114283;28;20818;-58
2022/12/17 15:25:53;;;;;;;14.73;5.23;;;;;;;14.13;100.00;95587.59;5113673;28;20427;-59
2022/12/17 15:28:23;;;;;;;13.63;5.47;;;;;;;13.50;100.00;95523.03;5113741;28;20941;-58
2022/12/17 15:30:52;;;;;;;7.20;3.87;;;;;;;14.08;100.00;95593.78;5113030;28;20521;-58
2022/12/17 15:33:20;;;;;;;2.13;2.03;;;;;;;14.12;100.00;95602.00;5111759;28;20518;-58
2022/12/17 15:35:48;;;;;;;2.17;2.07;;;;;;;14.45;100.00;95593.91;5110768;28;20813;-58
2022/12/17 15:38:17;;;;;;;2.37;2.27;;;;;;;14.47;100.00;95574.97;5110649;28;20485;-59
2022/12/17 15:40:45;;;;;;;3.40;1.77;;;;;;;14.11;100.00;95576.44;5111745;28;20534;-58
2022/12/17 15:43:14;;;;;;;5.00;2.43;;;;;;;14.14;100.00;95586.53;5111954;28;20523;-57
2022/12/17 15:45:46;;;;;;;4.27;3.90;;;;;;;14.03;100.00;95585.84;5111895;28;20480;-58
2022/12/17 15:48:16;;;;;;;6.30;3.87;;;;;;;13.48;100.00;95536.63;5112446;28;20430;-58
2022/12/17 15:50:45;;;;;;;1.17;1.17;;;;;;;14.01;100.00;95586.13;5113035;28;20522;-57
2022/12/17 15:53:13;;;;;;;3.03;2.83;;;;;;;13.99;100.00;95593.63;5113790;28;20455;-57
2022/12/17 15:55:42;;;;;;;7.13;3.27;;;;;;;13.53;100.00;95547.25;5113686;28;20787;-57
2022/12/17 15:58:11;;;;;;;2.77;2.67;;;;;;;14.14;100.00;95581.22;5113327;28;20467;-57
2022/12/17 16:00:39;;;;;;;5.67;3.47;;;;;;;14.01;100.00;95588.03;5113395;28;20427;-57
2022/12/17 16:03:09;;;;;;;1.63;1.53;;;;;;;13.92;100.00;95582.50;5113266;28;20424;-57
2022/12/17 16:05:37;;;;;;;2.03;1.93;;;;;;;14.05;100.00;95585.56;5113147;28;20492;-57
2022/12/17 16:08:06;;;;;;;1.40;1.20;;;;;;;14.16;100.00;95576.38;5113091;28;20419;-57
2022/12/17 16:10:35;;;;;;;2.83;2.40;;;;;;;13.95;100.00;95573.94;5113182;28;20429;-56
2022/12/17 16:13:04;;;;;;;3.00;2.90;;;;;;;14.10;100.00;95577.50;5113051;28;20423;-57
2022/12/17 16:15:32;;;;;;;4.40;3.27;;;;;;;14.07;100.00;95588.72;5112919;28;20918;-57
2022/12/17 16:18:00;;;;;;;2.67;2.57;;;;;;;14.04;100.00;95598.09;5112877;28;20467;-57
2022/12/17 16:20:32;;;;;;;3.60;2.30;;;;;;;14.12;100.00;95594.00;5113256;28;20510;-57
2022/12/17 16:23:01;;;;;;;2.00;1.57;;;;;;;14.12;100.00;95594.81;5113231;28;20501;-57
2022/12/17 16:25:29;;;;;;;1.90;1.60;;;;;;;13.78;100.00;95586.94;5112874;28;20510;-57
2022/12/17 16:27:57;;;;;;;1.50;1.40;;;;;;;13.89;100.00;95599.06;5112718;28;20429;-57
2022/12/17 16:30:26;;;;;;;1.37;1.33;;;;;;;14.07;100.00;95602.06;5113029;28;20422;-57
2022/12/17 16:32:57;;;;;;;0.50;0.40;;;;;;;13.45;100.00;95531.06;5112752;28;20458;-56
2022/12/17 16:35:27;;;;;;;0.90;0.90;;;;;;;14.00;100.00;95621.06;5112921;28;20426;-57
2022/12/17 16:37:56;;;;;;;1.03;0.93;;;;;;;14.02;100.00;95632.22;5112747;28;20581;-56
2022/12/17 16:40:25;;;;;;;9.03;1.27;;;;;;;14.06;100.00;95629.81;5112575;28;20427;-57
2022/12/17 16:42:53;;;;;;;2.97;2.33;;;;;;;14.14;100.00;95651.28;5112634;28;20419;-57
2022/12/17 16:45:21;;;;;;;0.97;0.97;;;;;;;14.21;100.00;95634.97;5112547;28;20425;-55
2022/12/17 16:47:49;;;;;;;1.83;1.63;;;;;;;14.07;100.00;95612.72;5112632;28;20791;-55
2022/12/17 16:50:18;;;;;;;1.10;0.80;;;;;;;13.95;100.00;95595.28;5112504;28;21017;-56
2022/12/17 16:52:47;;;;;;;0.70;0.70;;;;;;;13.98;100.00;95602.72;5112472;28;20537;-56
2022/12/17 16:55:17;;;;;;;0.67;0.67;;;;;;;13.90;100.00;95605.19;5112654;28;20467;-56
2022/12/17 16:57:45;;;;;;;2.80;2.60;;;;;;;13.86;100.00;95623.59;5112162;28;20557;-55
2022/12/17 17:00:14;;;;;;;1.80;1.70;;;;;;;13.91;100.00;95630.75;5112106;28;20779;-56
2022/12/17 17:02:43;;;;;;;1.97;1.87;;;;;;;13.51;100.00;95642.56;5112059;28;20422;-55
2022/12/17 17:05:19;;;;;;;7.03;2.30;;;;;;;13.06;100.00;95581.69;5112355;28;20521;-55
2022/12/17 17:07:48;;;;;;;8.43;5.30;;;;;;;13.21;100.00;95646.28;5112396;28;20439;-56
2022/12/17 17:10:18;;;;;;;2.37;2.27;;;;;;;13.51;100.00;95641.78;5112469;28;20461;-56
2022/12/17 17:12:46;;;;;;;4.07;3.77;;;;;;;13.51;100.00;95647.91;5112331;28;20875;-56
2022/12/17 17:15:14;;;;;;;3.40;3.20;;;;;;;13.62;100.00;95643.28;5112066;28;20993;-57
2022/12/17 17:17:42;;;;;;;2.07;1.53;;;;;;;13.03;100.00;95558.31;5112330;28;20497;-57
2022/12/17 17:20:23;;;;;;;4.40;3.00;;;;;;;13.47;100.00;95652.19;5112344;28;20419;-56
2022/12/17 17:22:51;;;;;;;4.33;4.23;;;;;;;13.64;100.00;95649.91;5111818;28;20473;-57
2022/12/17 17:25:21;;;;;;;3.60;2.90;;;;;;;13.59;100.00;95646.50;5111822;28;20426;-56
2022/12/17 17:27:49;;;;;;;2.10;2.00;;;;;;;12.84;100.00;95560.03;5111666;28;20465;-56
2022/12/17 17:30:18;;;;;;;3.77;3.47;;;;;;;13.52;100.00;95651.34;5111738;28;20445;-56
2022/12/17 17:32:46;;;;;;;2.30;2.17;;;;;;;13.66;100.00;95655.75;5111476;28;20528;-56
2022/12/17 17:35:15;;;;;;;4.37;2.30;;;;;;;13.90;100.00;95655.81;5112821;28;20506;-56
2022/12/17 17:37:43;;;;;;;1.37;1.13;;;;;;;13.96;100.00;95660.78;5115644;28;20930;-56
2022/12/17 17:40:13;;;;;;;2.30;2.20;;;;;;;14.00;100.00;95648.50;5115316;28;20428;-56
2022/12/17 17:42:43;;;;;;;1.67;1.57;;;;;;;14.13;100.00;95649.72;5115768;28;20426;-56
2022/12/17 17:45:18;;;;;;;3.20;1.53;;;;;;;14.18;100.00;95660.31;5116182;28;20504;-56
2022/12/17 17:47:47;;;;;;;5.20;1.87;;;;;;;14.18;100.00;95651.53;5115798;28;20819;-56
2022/12/17 17:50:15;;;;;;;1.00;1.00;;;;;;;14.22;100.00;95647.22;5115785;28;20500;-56
2022/12/17 17:52:43;;;;;;;1.20;1.10;;;;;;;14.24;100.00;95645.06;5116247;28;20856;-56
2022/12/17 17:55:11;;;;;;;0.90;0.90;;;;;;;14.27;100.00;95650.63;5115811;28;20430;-56
2022/12/17 17:57:40;;;;;;;1.60;0.80;;;;;;;14.28;100.00;95641.56;5115345;28;20474;-56
2022/12/17 18:00:11;;;;;;;0.93;0.73;;;;;;;14.13;100.00;95659.56;5115041;28;20513;-56
2022/12/17 18:02:40;;;;;;;1.53;1.43;;;;;;;14.09;100.00;95669.22;5115358;28;20520;-56
2022/12/17 18:05:09;;;;;;;0.70;0.70;;;;;;;14.07;100.00;95682.00;5114972;28;20414;-56
2022/12/17 18:07:37;;;;;;;1.70;1.53;;;;;;;13.76;100.00;95684.19;5115039;28;21007;-56
2022/12/17 18:10:07;;;;;;;2.93;2.20;;;;;;;13.90;100.00;95688.59;5115032;28;20439;-57
2022/12/17 18:15:22;;;;;;;2.43;1.97;;;;;;;13.94;100.00;95678.13;5112928;28;20820;-56
2022/12/17 18:17:51;;;;;;;5.83;3.57;;;;;;;13.81;100.00;95679.59;5112979;28;20552;-56
2022/12/17 18:20:19;;;;;;;5.50;4.07;;;;;;;13.45;100.00;95694.28;5114685;28;20458;-55
2022/12/17 18:22:49;;;;;;;3.83;3.63;;;;;;;12.95;100.00;95580.97;5113220;28;20418;-57
2022/12/17 18:25:17;;;;;;;2.57;2.37;;;;;;;13.59;100.00;95694.44;5114039;28;20485;-56
2022/12/17 18:27:46;;;;;;;3.70;1.83;;;;;;;13.18;100.00;95620.19;5114344;28;20446;-57
2022/12/17 18:30:15;;;;;;;1.17;1.17;;;;;;;13.73;100.00;95703.41;5114842;28;20426;-57
2022/12/17 18:32:45;;;;;;;3.17;3.07;;;;;;;13.69;100.00;95723.66;5114527;28;20549;-56
2022/12/17 18:35:14;;;;;;;2.73;2.40;;;;;;;13.84;100.00;95716.34;5114757;28;20961;-56
2022/12/17 18:37:42;;;;;;;3.43;3.23;;;;;;;13.66;100.00;95709.03;5114883;28;20509;-56
2022/12/17 18:40:11;;;;;;;2.47;2.30;;;;;;;13.73;100.00;95717.50;5114832;28;20426;-57
2022/12/17 18:45:25;;;;;;;2.73;1.30;;;;;;;12.80;100.00;95572.31;5115024;28;20671;-57
2022/12/17 18:47:55;;;;;;;9.10;1.07;;;;;;;13.45;100.00;95718.25;5113427;28;20985;-57
2022/12/17 18:50:23;;;;;;;0.70;0.70;;;;;;;13.56;100.00;95717.09;5074209;28;20432;-57
2022/12/17 18:52:51;;;;;;;2.03;1.90;;;;;;;13.57;100.00;95741.88;5074103;28;20435;-57
2022/12/17 18:55:20;;;;;;;5.10;2.20;;;;;;;12.84;100.00;95715.13;5074382;28;20451;-57
2022/12/17 18:57:48;;;;;;;1.97;1.40;;;;;;;12.49;100.00;95694.78;5074347;28;20515;-56
2022/12/17 19:00:17;;;;;;;3.13;2.93;;;;;;;12.91;100.00;95742.22;5074010;28;20520;-57
2022/12/17 19:02:45;;;;;;;4.80;0.90;;;;;;;13.19;100.00;95741.56;5073927;28;20433;-57
2022/12/17 19:05:15;;;;;;;52.47;9.50;;;;;;;13.14;100.00;95752.25;5074113;28;20428;-56
2022/12/17 19:07:44;;;;;;;4.17;3.97;;;;;;;13.22;100.00;95761.53;5074096;28;20453;-56
2022/12/17 19:10:13;;;;;;;2.43;2.23;;;;;;;13.28;100.00;95753.22;5073851;28;20420;-56
2022/12/17 19:12:41;;;;;;;4.70;1.77;;;;;;;13.46;100.00;95748.34;5073114;28;20514;-57
2022/12/17 19:15:10;;;;;;;0.90;0.90;;;;;;;13.31;100.00;95750.00;5073475;28;20424;-57
2022/12/17 19:17:38;;;;;;;1.43;1.43;;;;;;;13.34;100.00;95748.66;5073864;28;20885;-58
2022/12/17 19:20:08;;;;;;;1.30;1.20;;;;;;;13.26;100.00;95719.97;5073425;28;20507;-57
2022/12/17 19:22:37;;;;;;;1.27;1.17;;;;;;;13.16;100.00;95744.78;5073392;28;20601;-57
2022/12/17 19:25:06;;;;;;;1.13;1.13;;;;;;;12.53;100.00;95628.56;5073526;28;20432;-57
2022/12/17 19:27:35;;;;;;;4.30;3.50;;;;;;;12.94;100.00;95748.84;5073411;28;20474;-57
2022/12/17 19:30:04;;;;;;;5.20;4.30;;;;;;;12.83;100.00;95758.72;5073697;28;20769;-57
2022/12/17 19:32:32;;;;;;;7.97;4.40;;;;;;;12.48;100.00;95679.88;5072458;28;20432;-57
2022/12/17 19:35:00;;;;;;;4.17;3.50;;;;;;;12.87;100.00;95751.03;5073662;28;20798;-57
2022/12/17 19:37:29;;;;;;;11.20;3.73;;;;;;;12.22;100.00;95654.47;5073624;28;20973;-57
2022/12/17 19:39:58;;;;;;;3.27;3.07;;;;;;;12.69;100.00;95763.06;5073503;28;20472;-57
2022/12/17 19:42:27;;;;;;;5.10;4.80;;;;;;;12.48;100.00;95734.91;5073577;28;20429;-57
2022/12/17 19:45:05;;;;;;;10.10;4.20;;;;;;;12.65;100.00;95757.47;5073588;28;20800;-58
2022/12/17 19:47:33;;;;;;;3.13;3.03;;;;;;;12.59;100.00;95763.09;5072774;28;20941;-57
2022/12/17 19:50:01;;;;;;;4.97;2.20;;;;;;;12.55;100.00;95714.94;5107541;28;20967;-57
2022/12/17 19:52:29;;;;;;;2.13;1.90;;;;;;;12.85;100.00;95755.81;5113632;28;20426;-57
2022/12/17 19:55:00;;;;;;;3.33;2.47;;;;;;;13.00;100.00;95759.22;5113903;28;20427;-57
2022/12/17 19:57:28;;;;;;;1.63;1.53;;;;;;;12.99;100.00;95754.16;5113426;28;20801;-57
2022/12/17 19:59:57;;;;;;;3.13;2.93;;;;;;;12.84;100.00;95752.34;5113452;28;20474;-57
2022/12/17 20:02:25;;;;;;;2.13;2.03;;;;;;;11.50;100.00;95553.97;5113406;28;20454;-55
2022/12/17 20:04:59;;;;;;;1.40;1.30;;;;;;;12.81;100.00;95765.41;5113120;28;20442;-55
2022/12/17 20:07:28;;;;;;;0.87;0.87;;;;;;;12.64;100.00;95737.28;5112963;28;20928;-56
2022/12/17 20:09:56;;;;;;;0.70;0.70;;;;;;;12.27;100.00;95701.50;5113220;28;20917;-57
2022/12/17 20:12:26;;;;;;;0.60;0.60;;;;;;;12.41;100.00;95711.28;5113513;28;20422;-56
2022/12/17 20:14:54;;;;;;;3.70;1.90;;;;;;;11.83;100.00;95601.19;5112953;28;20523;-55
2022/12/17 20:17:24;;;;;;;0.70;0.70;;;;;;;12.96;100.00;95768.78;5113133;28;20425;-55
2022/12/17 20:19:55;;;;;;;1.73;1.63;;;;;;;12.79;100.00;95746.25;5112887;28;20497;-56
2022/12/17 20:22:25;;;;;;;1.47;1.20;;;;;;;12.58;100.00;95769.47;5112523;28;20433;-56
2022/12/17 20:24:53;;;;;;;1.73;1.63;;;;;;;12.06;100.00;95749.38;5112795;28;20465;-56
2022/12/17 20:27:21;;;;;;;2.70;2.60;;;;;;;11.35;100.00;95623.00;5112700;28;20441;-56
2022/12/17 20:29:51;;;;;;;3.63;3.47;;;;;;;12.64;100.00;95809.09;5113025;28;20463;-56
2022/12/17 20:32:20;;;;;;;2.00;1.90;;;;;;;12.80;100.00;95801.84;5112519;28;20468;-56
2022/12/17 20:34:48;;;;;;;2.13;2.03;;;;;;;12.30;100.00;95765.53;5112489;28;20431;-56
2022/12/17 20:37:17;;;;;;;2.60;2.40;;;;;;;12.66;100.00;95801.63;5112568;28;20427;-56
2022/12/17 20:39:45;;;;;;;11.50;2.00;;;;;;;12.37;100.00;95818.44;5112021;28;20466;-56
2022/12/17 20:42:13;;;;;;;1.90;1.80;;;;;;;12.19;100.00;95806.50;5112448;28;20444;-56
2022/12/17 20:44:41;;;;;;;4.27;3.83;;;;;;;12.67;100.00;95829.03;5112278;28;20425;-56
2022/12/17 20:47:11;;;;;;;1.53;1.43;;;;;;;12.66;100.00;95832.72;5112264;28;20907;-57
2022/12/17 20:49:39;;;;;;;1.80;1.70;;;;;;;12.74;100.00;95818.88;5111681;28;20524;-57
2022/12/17 20:52:08;;;;;;;1.53;1.43;;;;;;;12.79;100.00;95799.44;5111378;28;20438;-56
2022/12/17 20:54:36;;;;;;;1.63;1.53;;;;;;;11.52;100.00;95628.81;5112658;28;20427;-56
2022/12/17 20:57:04;;;;;;;6.17;3.53;;;;;;;12.24;100.00;95819.78;5112372;28;20794;-56
2022/12/17 20:59:33;;;;;;;3.40;2.90;;;;;;;11.83;100.00;95789.75;5112195;28;20973;-56
2022/12/17 21:02:01;;;;;;;3.23;2.73;;;;;;;12.34;100.00;95816.31;5112584;28;20426;-56
2022/12/17 21:04:31;;;;;;;5.90;3.27;;;;;;;12.53;100.00;95812.81;5112356;28;20419;-57
2022/12/17 21:06:59;;;;;;;2.83;1.80;;;;;;;12.27;100.00;95808.59;5112665;28;20433;-57
2022/12/17 21:09:27;;;;;;;2.03;1.60;;;;;;;12.66;100.00;95820.25;5111727;28;20515;-56
2022/12/17 21:11:56;;;;;;;2.80;1.20;;;;;;;11.74;100.00;95629.34;5112387;28;20430;-56
2022/12/17 21:14:24;;;;;;;3.03;1.10;;;;;;;12.88;100.00;95813.78;5112195;28;20435;-56
2022/12/17 21:16:59;;;;;;;2.13;2.03;;;;;;;12.72;100.00;95779.25;5112136;28;20451;-56
2022/12/17 21:19:27;;;;;;;2.43;1.40;;;;;;;12.66;100.00;95791.00;5112715;28;20470;-56
2022/12/17 21:21:57;;;;;;;1.00;0.90;;;;;;;12.33;100.00;95770.31;5111994;28;20436;-57
2022/12/17 21:24:26;;;;;;;0.93;0.93;;;;;;;12.60;100.00;95812.53;5112107;28;20427;-57
2022/12/17 21:26:54;;;;;;;0.87;0.87;;;;;;;12.57;100.00;95818.41;5111961;28;20438;-57
2022/12/17 21:29:22;;;;;;;3.70;3.40;;;;;;;12.56;100.00;95836.22;5112400;28;20444;-56
2022/12/17 21:31:52;;;;;;;1.60;1.33;;;;;;;12.18;100.00;95842.09;5112432;28;20438;-56
2022/12/17 21:34:23;;;;;;;2.07;1.97;;;;;;;11.08;100.00;95670.97;5112105;28;20434;-57
2022/12/17 21:36:52;;;;;;;1.87;1.77;;;;;;;12.26;100.00;95830.13;5112201;28;20500;-56
2022/12/17 21:39:22;;;;;;;1.27;1.27;;;;;;;12.32;100.00;95842.38;5111221;28;20422;-55
2022/12/17 21:44:38;;;;;;;1.07;1.07;;;;;;;12.26;100.00;95870.00;5085691;28;20532;-57
2022/12/17 21:47:07;;;;;;;0.40;0.30;;;;;;;12.06;100.00;95801.72;5112136;28;20446;-55
2022/12/17 21:49:35;;;;;;;1.27;1.10;;;;;;;12.58;100.00;95867.84;5111519;28;20481;-56
2022/12/17 21:52:04;;;;;;;1.30;1.20;;;;;;;12.53;100.00;95879.28;5112012;28;20525;-56
2022/12/17 21:54:37;;;;;;;1.53;0.70;;;;;;;12.63;100.00;95883.78;5111943;28;20457;-56
2022/12/17 21:57:06;;;;;;;2.60;2.50;;;;;;;12.57;100.00;95892.84;5111630;28;20462;-56
2022/12/17 21:59:34;;;;;;;0.90;0.90;;;;;;;12.26;100.00;95897.38;5111493;28;20434;-57
2022/12/17 22:02:02;;;;;;;1.13;1.13;;;;;;;12.42;100.00;95900.84;5111611;28;20863;-56
2022/12/17 22:04:31;;;;;;;5.20;1.27;;;;;;;11.99;100.00;95856.97;5111780;28;20850;-56
2022/12/17 22:06:59;;;;;;;0.73;0.73;;;;;;;12.25;100.00;95871.03;5111965;28;20423;-56
2022/12/17 22:09:38;;;;;;;0.70;0.70;;;;;;;12.70;100.00;95898.41;5111755;28;20429;-56
2022/12/17 22:15:12;;;;;;;1.57;1.47;;;;;;;12.39;100.00;95864.16;5111619;28;20422;-57
2022/12/17 22:17:41;;;;;;;1.47;1.43;;;;;;;12.57;100.00;95893.63;5111914;28;20774;-56
2022/12/17 22:20:11;;;;;;;1.30;1.20;;;;;;;12.53;100.00;95878.47;5111451;28;20471;-57
2022/12/17 22:22:39;;;;;;;1.47;1.47;;;;;;;12.72;100.00;95890.94;5115337;28;20548;-57
2022/12/17 22:25:10;;;;;;;1.43;0.97;;;;;;;12.02;100.00;95822.69;5115777;28;20510;-57
2022/12/17 22:27:40;;;;;;;0.50;0.30;;;;;;;12.31;100.00;95856.72;5115603;28;20429;-57
2022/12/17 22:32:59;;;;;;;0.50;0.50;;;;;;;12.92;100.00;95889.34;5114986;28;20444;-57
2022/12/17 22:35:33;;;;;;;0.80;0.80;;;;;;;12.17;100.00;95851.13;5114940;28;20443;-57
2022/12/17 22:38:22;;;;;;;4.47;0.40;;;;;;;12.35;100.00;95898.44;5114765;28;20442;-57
2022/12/17 22:43:28;;;;;;;1.10;0.73;;;;;;;12.39;100.00;95907.50;5114920;28;20484;-57
2022/12/17 22:44:20;;;;;;;2.03;1.93;;;;;;;12.46;100.00;95908.00;5114760;28;20436;-56
2022/12/17 22:47:08;;;;;;;1.10;1.03;;;;;;;12.56;100.00;95894.72;5114752;28;20442;-56
2022/12/17 22:49:39;;;;;;;0.70;0.70;;;;;;;12.52;100.00;95883.00;5114906;28;21195;-56
2022/12/17 22:52:11;;;;;;;2.43;2.33;;;;;;;12.31;100.00;95897.38;5114745;28;20476;-57
2022/12/17 22:54:39;;;;;;;0.73;0.70;;;;;;;12.48;100.00;95894.44;5114679;28;20483;-56
2022/12/17 22:57:09;;;;;;;3.50;1.53;;;;;;;12.61;100.00;95896.56;5114424;28;20437;-56
2022/12/17 22:59:57;;;;;;;0.97;0.97;;;;;;;12.73;100.00;95878.47;5114471;28;21017;-56
2022/12/17 23:02:26;;;;;;;3.70;0.87;;;;;;;12.48;100.00;95830.63;5114856;28;20433;-56
2022/12/17 23:04:54;;;;;;;0.73;0.73;;;;;;;12.20;100.00;95797.44;5114946;28;20447;-56
2022/12/17 23:07:22;;;;;;;0.93;0.83;;;;;;;12.48;100.00;95887.28;5114432;28;20931;-56
2022/12/17 23:09:58;;;;;;;1.30;1.23;;;;;;;12.34;100.00;95888.88;5114516;28;20441;-56
2022/12/17 23:15:14;;;;;;;0.40;0.30;;;;;;;12.47;100.00;95859.06;5114597;28;20441;-55
2022/12/17 23:17:42;;;;;;;3.70;1.73;;;;;;;11.19;100.00;95708.94;5114351;28;20425;-56
2022/12/17 23:20:11;;;;;;;1.90;0.60;;;;;;;12.28;100.00;95870.53;5114210;28;20418;-56
2022/12/17 23:22:39;;;;;;;2.50;1.33;;;;;;;12.47;100.00;95876.91;5114184;28;20435;-56
2022/12/17 23:25:08;;;;;;;5.20;0.97;;;;;;;12.43;100.00;95873.97;5114049;28;20420;-56
2022/12/17 23:27:38;;;;;;;0.53;0.53;;;;;;;12.11;100.00;95881.44;5114466;28;20449;-56
2022/12/17 23:30:07;;;;;;;0.93;0.93;;;;;;;12.20;100.00;95884.34;5114387;28;20492;-57
2022/12/17 23:32:36;;;;;;;1.53;1.53;;;;;;;11.73;100.00;95796.91;5113583;28;20511;-56
2022/12/17 23:35:06;;;;;;;1.47;0.60;;;;;;;12.24;100.00;95890.72;5114055;28;20507;-56
2022/12/17 23:37:34;;;;;;;0.40;0.30;;;;;;;12.43;100.00;95892.59;5114081;28;20467;-56
2022/12/17 23:40:08;;;;;;;0.70;0.57;;;;;;;12.23;100.00;95873.97;5114339;28;20437;-56
2022/12/17 23:42:38;;;;;;;2.10;0.47;;;;;;;11.92;100.00;95896.25;5113839;28;20841;-56
2022/12/17 23:45:09;;;;;;;1.27;1.27;;;;;;;11.65;100.00;95924.84;5114278;28;20437;-56
2022/12/17 23:47:39;;;;;;;0.87;0.87;;;;;;;11.88;100.00;95927.88;5113850;28;20885;-56
2022/12/17 23:50:09;;;;;;;0.60;0.60;;;;;;;12.13;100.00;95931.63;5113765;28;20462;-56
2022/12/17 23:52:40;;;;;;;3.13;0.97;;;;;;;12.13;100.00;95929.78;5114024;28;20765;-56
2022/12/17 23:55:10;;;;;;;0.40;0.40;;;;;;;12.09;100.00;95910.91;5113789;28;20431;-56
2022/12/17 23:57:40;;;;;;;0.70;0.60;;;;;;;12.01;100.00;95916.75;5113645;28;20946;-56
